Time;durP1;ratioP1;P1;durP2;ratioP2;P2;SDS_P1;SDS_P2;PMS_P1;PMS_P2;Temp;Humidity;BMP_temperature;BMP_pressure;BME280_temperature;BME280_humidity;BME280_pressure;Samples;Min_cycle;Max_cycle;Signal;HPM_P1;HPM_P2
2022/12/29 00:01:42;;;;;;;26.88;4.13;;;;;;;;;;5020037;28;20101;-62
2022/12/29 00:04:11;;;;;;;30.52;4.68;;;;;;;;;;5031710;28;20017;-62
2022/12/29 00:06:38;;;;;;;21.75;3.75;;;;;;;;;;5031962;28;20038;-62
2022/12/29 00:09:04;;;;;;;30.02;4.55;;;;;;;;;;5031679;28;20382;-62
2022/12/29 00:11:30;;;;;;;24.23;4.00;;;;;;;;;;5032088;28;20108;-62
2022/12/29 00:16:42;;;;;;;23.52;4.68;;;;;;;;;;5030152;28;20508;-62
2022/12/29 00:35:07;;;;;;;30.33;5.10;;;;;;;;;;5031298;28;20061;-62
2022/12/29 00:35:42;;;;;;;18.98;3.60;;;;;;;;;;5031511;28;20069;-62
2022/12/29 00:46:23;;;;;;;20.08;3.40;;;;;;;;;;5034702;28;20030;-62
2022/12/29 00:51:34;;;;;;;22.38;5.00;;;;;;;;;;5034915;28;20120;-62
2022/12/29 00:54:00;;;;;;;20.83;3.08;;;;;;;;;;5035037;28;20098;-62
2022/12/29 00:56:26;;;;;;;19.60;3.88;;;;;;;;;;5034759;28;20057;-62
2022/12/29 00:58:52;;;;;;;21.05;3.38;;;;;;;;;;5035094;28;20017;-62
2022/12/29 01:01:19;;;;;;;27.48;4.60;;;;;;;;;;5033447;28;20025;-62
2022/12/29 01:03:45;;;;;;;26.80;4.90;;;;;;;;;;5034956;28;20551;-62
2022/12/29 01:06:11;;;;;;;33.20;4.25;;;;;;;;;;5032808;28;20107;-62
2022/12/29 01:08:37;;;;;;;22.92;5.70;;;;;;;;;;5034794;28;20022;-62
2022/12/29 01:11:05;;;;;;;22.08;3.67;;;;;;;;;;5032931;28;20476;-62
2022/12/29 01:13:31;;;;;;;27.10;3.95;;;;;;;;;;5034595;28;20048;-62
2022/12/29 01:15:58;;;;;;;22.30;3.70;;;;;;;;;;5034783;28;20030;-62
2022/12/29 01:18:24;;;;;;;21.05;4.07;;;;;;;;;;5033003;28;20036;-62
2022/12/29 01:20:51;;;;;;;24.05;3.65;;;;;;;;;;5034253;28;20030;-62
2022/12/29 01:23:17;;;;;;;32.85;4.15;;;;;;;;;;5034314;28;20440;-62
2022/12/29 01:25:45;;;;;;;23.15;4.43;;;;;;;;;;5033176;28;20034;-62
2022/12/29 01:28:11;;;;;;;27.05;5.25;;;;;;;;;;5033528;28;20466;-62
2022/12/29 01:30:38;;;;;;;34.63;5.25;;;;;;;;;;5034499;28;20087;-62
2022/12/29 01:33:04;;;;;;;24.48;4.63;;;;;;;;;;5034061;28;20026;-63
2022/12/29 01:35:30;;;;;;;34.50;5.50;;;;;;;;;;5034032;28;20437;-62
2022/12/29 01:37:57;;;;;;;28.60;5.07;;;;;;;;;;5033035;28;20026;-62
2022/12/29 01:40:24;;;;;;;29.02;5.80;;;;;;;;;;5032390;28;20038;-62
2022/12/29 01:42:50;;;;;;;26.02;4.30;;;;;;;;;;5034238;28;20017;-62
2022/12/29 01:45:17;;;;;;;30.17;4.40;;;;;;;;;;5032585;28;20033;-62
2022/12/29 01:47:46;;;;;;;24.58;4.13;;;;;;;;;;5032645;28;20466;-62
2022/12/29 01:50:15;;;;;;;26.40;3.55;;;;;;;;;;5032000;28;20171;-62
2022/12/29 01:52:46;;;;;;;22.60;5.13;;;;;;;;;;5033789;28;20029;-62
2022/12/29 01:55:12;;;;;;;22.75;4.35;;;;;;;;;;5032368;28;20075;-62
2022/12/29 01:57:40;;;;;;;25.35;6.03;;;;;;;;;;5033957;28;20026;-62
2022/12/29 02:00:09;;;;;;;34.80;4.35;;;;;;;;;;5032477;28;20041;-61
2022/12/29 02:02:44;;;;;;;33.85;4.78;;;;;;;;;;5018527;28;20025;-62
2022/12/29 02:05:14;;;;;;;41.28;9.30;;;;;;;;;;5033306;28;20036;-62
2022/12/29 02:07:41;;;;;;;34.20;5.45;;;;;;;;;;5032531;28;20033;-62
2022/12/29 02:10:10;;;;;;;41.75;5.40;;;;;;;;;;5032274;28;20025;-62
2022/12/29 02:12:36;;;;;;;38.85;6.50;;;;;;;;;;5032115;28;20026;-62
2022/12/29 02:15:03;;;;;;;42.55;6.00;;;;;;;;;;5022847;28;20405;-62
2022/12/29 02:17:29;;;;;;;37.92;4.93;;;;;;;;;;5032248;28;20033;-62
2022/12/29 02:20:14;;;;;;;34.33;6.75;;;;;;;;;;5031788;28;20041;-62
2022/12/29 02:22:59;;;;;;;37.92;6.35;;;;;;;;;;5032003;28;20029;-62
2022/12/29 02:25:28;;;;;;;34.20;5.85;;;;;;;;;;5031731;28;20044;-62
2022/12/29 02:28:12;;;;;;;40.10;5.75;;;;;;;;;;5031993;28;20488;-62
2022/12/29 02:30:57;;;;;;;45.85;5.70;;;;;;;;;;5032121;28;20048;-62
2022/12/29 02:33:42;;;;;;;49.90;7.70;;;;;;;;;;5032232;28;20099;-62
2022/12/29 02:36:26;;;;;;;32.55;5.32;;;;;;;;;;5031858;28;20042;-62
2022/12/29 02:38:56;;;;;;;44.85;7.25;;;;;;;;;;5031848;28;20034;-61
2022/12/29 02:41:32;;;;;;;32.90;4.97;;;;;;;;;;5032532;28;20026;-62
2022/12/29 02:44:04;;;;;;;23.85;4.53;;;;;;;;;;5033049;28;20080;-62
2022/12/29 02:46:47;;;;;;;28.23;4.63;;;;;;;;;;5032607;28;20021;-61
2022/12/29 02:49:16;;;;;;;38.97;4.78;;;;;;;;;;5031435;28;20508;-62
2022/12/29 02:51:56;;;;;;;19.63;4.20;;;;;;;;;;5031692;28;20034;-62
2022/12/29 02:54:42;;;;;;;28.35;4.50;;;;;;;;;;5031339;28;20551;-62
2022/12/29 02:57:35;;;;;;;26.85;4.78;;;;;;;;;;5031398;28;20030;-62
2022/12/29 03:00:02;;;;;;;21.08;4.10;;;;;;;;;;5019058;28;20045;-62
2022/12/29 03:02:43;;;;;;;34.08;4.65;;;;;;;;;;5029993;28;20104;-62
2022/12/29 03:05:22;;;;;;;23.45;4.55;;;;;;;;;;5031429;28;20071;-62
2022/12/29 03:08:04;;;;;;;25.50;4.40;;;;;;;;;;5015881;28;20021;-62
2022/12/29 03:10:42;;;;;;;24.08;4.45;;;;;;;;;;5032337;28;20053;-62
2022/12/29 03:16:07;;;;;;;26.92;3.80;;;;;;;;;;5016621;28;20048;-62
2022/12/29 03:18:46;;;;;;;30.30;5.20;;;;;;;;;;5030815;28;20501;-62
2022/12/29 03:21:18;;;;;;;23.45;4.07;;;;;;;;;;5030916;28;20037;-62
2022/12/29 03:23:49;;;;;;;30.00;4.75;;;;;;;;;;5030847;28;20022;-61
2022/12/29 03:26:18;;;;;;;25.30;6.05;;;;;;;;;;5032493;28;20032;-62
2022/12/29 03:28:47;;;;;;;29.23;4.28;;;;;;;;;;5030954;28;20080;-62
2022/12/29 03:31:19;;;;;;;30.30;5.72;;;;;;;;;;5030618;28;20037;-62
2022/12/29 03:33:47;;;;;;;40.40;6.25;;;;;;;;;;5030618;28;20041;-61
2022/12/29 03:36:17;;;;;;;25.08;4.32;;;;;;;;;;5032199;28;20095;-62
2022/12/29 03:38:47;;;;;;;27.67;5.18;;;;;;;;;;5030807;28;20486;-62
2022/12/29 03:41:16;;;;;;;28.48;4.00;;;;;;;;;;5030789;28;20037;-62
2022/12/29 03:43:43;;;;;;;25.63;4.93;;;;;;;;;;5030267;28;20498;-62
2022/12/29 03:46:09;;;;;;;34.05;5.53;;;;;;;;;;5031700;28;20021;-62
2022/12/29 03:48:39;;;;;;;35.13;4.90;;;;;;;;;;5030300;28;20029;-62
2022/12/29 03:51:05;;;;;;;19.35;4.75;;;;;;;;;;5030804;28;20037;-62
2022/12/29 03:53:32;;;;;;;24.08;4.38;;;;;;;;;;5030222;28;20025;-62
2022/12/29 03:56:00;;;;;;;22.75;4.75;;;;;;;;;;5030712;28;20108;-62
2022/12/29 03:58:26;;;;;;;24.63;3.67;;;;;;;;;;5030616;28;20025;-62
2022/12/29 04:01:01;;;;;;;30.08;3.35;;;;;;;;;;5030319;28;20021;-62
2022/12/29 04:03:28;;;;;;;25.15;3.78;;;;;;;;;;5030224;28;20036;-62
2022/12/29 04:05:55;;;;;;;19.65;3.28;;;;;;;;;;5030465;28;20113;-62
2022/12/29 04:08:22;;;;;;;20.27;4.28;;;;;;;;;;5030504;28;20400;-62
2022/12/29 04:10:49;;;;;;;28.17;4.13;;;;;;;;;;5030263;28;20026;-62
2022/12/29 04:13:16;;;;;;;25.30;4.90;;;;;;;;;;5030430;28;20040;-62
2022/12/29 04:15:44;;;;;;;27.00;4.93;;;;;;;;;;5031885;28;20061;-62
2022/12/29 04:18:10;;;;;;;32.00;4.78;;;;;;;;;;5036020;28;20481;-62
2022/12/29 04:23:22;;;;;;;26.25;4.93;;;;;;;;;;5034482;28;20026;-63
2022/12/29 04:25:48;;;;;;;21.48;4.88;;;;;;;;;;5034036;28;20120;-64
2022/12/29 04:28:15;;;;;;;26.42;4.18;;;;;;;;;;5026872;28;20037;-64
2022/12/29 04:30:48;;;;;;;28.63;5.05;;;;;;;;;;5034089;28;20071;-64
2022/12/29 04:33:40;;;;;;;34.88;5.68;;;;;;;;;;5033174;28;20077;-64
2022/12/29 04:36:07;;;;;;;38.25;5.63;;;;;;;;;;5017804;28;20029;-64
2022/12/29 04:38:34;;;;;;;28.65;5.65;;;;;;;;;;5033976;28;20532;-64
2022/12/29 04:41:03;;;;;;;29.33;4.70;;;;;;;;;;5035294;28;20029;-64
2022/12/29 04:43:30;;;;;;;34.25;5.22;;;;;;;;;;5033406;28;20021;-64
2022/12/29 04:46:16;;;;;;;30.58;5.68;;;;;;;;;;5034245;28;20045;-64
2022/12/29 04:48:53;;;;;;;24.20;4.63;;;;;;;;;;5033670;28;20568;-64
2022/12/29 04:51:35;;;;;;;32.17;5.15;;;;;;;;;;5033545;28;20124;-64
2022/12/29 04:54:01;;;;;;;30.67;5.80;;;;;;;;;;5034001;28;20034;-64
2022/12/29 04:56:28;;;;;;;27.20;4.28;;;;;;;;;;5033769;28;20028;-64
2022/12/29 04:58:54;;;;;;;23.08;3.67;;;;;;;;;;5033334;28;20026;-64
2022/12/29 05:01:21;;;;;;;28.88;4.78;;;;;;;;;;5033793;28;20071;-64
2022/12/29 05:03:50;;;;;;;17.27;4.82;;;;;;;;;;5033078;28;20397;-64
2022/12/29 05:06:16;;;;;;;33.38;5.85;;;;;;;;;;5033490;28;20104;-64
2022/12/29 05:08:43;;;;;;;38.00;8.60;;;;;;;;;;5033353;28;20032;-64
2022/12/29 05:11:09;;;;;;;27.05;4.72;;;;;;;;;;5033474;28;20076;-64
2022/12/29 05:13:36;;;;;;;37.60;5.28;;;;;;;;;;5032771;28;20034;-64
2022/12/29 05:16:03;;;;;;;28.75;5.65;;;;;;;;;;5033423;28;20033;-64
2022/12/29 05:18:30;;;;;;;29.80;4.38;;;;;;;;;;5033335;28;20028;-64
2022/12/29 05:20:58;;;;;;;27.40;4.57;;;;;;;;;;5033191;28;20053;-64
2022/12/29 05:23:24;;;;;;;35.20;5.68;;;;;;;;;;5033442;28;20055;-64
2022/12/29 05:26:01;;;;;;;33.15;4.95;;;;;;;;;;5032103;28;20470;-64
2022/12/29 05:28:47;;;;;;;25.92;4.90;;;;;;;;;;5042005;28;20034;-64
2022/12/29 05:31:18;;;;;;;26.70;4.50;;;;;;;;;;5029624;28;20346;-64
2022/12/29 05:33:44;;;;;;;25.35;4.10;;;;;;;;;;5035018;28;20044;-64
2022/12/29 05:36:11;;;;;;;26.77;3.95;;;;;;;;;;5047466;28;20124;-64
2022/12/29 05:38:42;;;;;;;30.95;6.45;;;;;;;;;;5024245;28;20034;-64
2022/12/29 05:41:08;;;;;;;28.83;3.90;;;;;;;;;;5038889;28;20061;-64
2022/12/29 05:43:54;;;;;;;30.75;4.72;;;;;;;;;;5046982;28;20087;-62
2022/12/29 05:46:33;;;;;;;27.45;4.75;;;;;;;;;;5022967;28;20029;-62
2022/12/29 05:49:18;;;;;;;31.17;4.97;;;;;;;;;;5032117;28;20075;-62
2022/12/29 05:52:07;;;;;;;23.27;6.03;;;;;;;;;;5008842;28;20184;-62
2022/12/29 05:54:34;;;;;;;32.47;4.15;;;;;;;;;;5022840;28;20033;-62
2022/12/29 05:57:02;;;;;;;31.52;5.05;;;;;;;;;;5039711;28;20057;-62
2022/12/29 05:59:29;;;;;;;16.55;4.43;;;;;;;;;;5029904;28;20040;-62
2022/12/29 06:01:55;;;;;;;26.48;4.15;;;;;;;;;;5032349;28;20124;-62
2022/12/29 06:04:22;;;;;;;31.70;4.15;;;;;;;;;;5045689;28;20029;-62
2022/12/29 06:06:48;;;;;;;26.38;5.43;;;;;;;;;;5021888;28;20034;-62
2022/12/29 06:09:28;;;;;;;20.33;3.95;;;;;;;;;;5032754;28;20440;-62
2022/12/29 06:11:54;;;;;;;20.98;4.00;;;;;;;;;;5031656;28;20401;-62
2022/12/29 06:14:20;;;;;;;23.65;4.40;;;;;;;;;;5033650;28;20550;-62
2022/12/29 06:16:47;;;;;;;24.70;3.55;;;;;;;;;;5032026;28;20025;-62
2022/12/29 06:19:13;;;;;;;29.30;4.22;;;;;;;;;;5032142;28;20052;-62
2022/12/29 06:21:40;;;;;;;19.50;4.13;;;;;;;;;;5032015;28;20029;-62
2022/12/29 06:24:06;;;;;;;18.77;3.85;;;;;;;;;;5031991;28;20049;-62
2022/12/29 06:26:34;;;;;;;25.70;3.78;;;;;;;;;;5033184;28;20083;-62
2022/12/29 06:29:02;;;;;;;26.45;3.72;;;;;;;;;;5031742;28;20057;-62
2022/12/29 06:31:29;;;;;;;19.02;4.80;;;;;;;;;;5028779;28;20144;-62
2022/12/29 06:33:55;;;;;;;20.60;3.78;;;;;;;;;;5029849;28;20053;-62
2022/12/29 06:36:21;;;;;;;36.70;4.38;;;;;;;;;;5025932;28;20463;-62
2022/12/29 06:38:47;;;;;;;24.63;4.30;;;;;;;;;;5023052;28;20022;-62
2022/12/29 06:41:13;;;;;;;24.48;4.03;;;;;;;;;;5025641;28;20101;-62
2022/12/29 06:43:58;;;;;;;30.48;5.13;;;;;;;;;;5030757;28;20079;-62
2022/12/29 06:46:37;;;;;;;28.55;4.82;;;;;;;;;;5021447;28;20045;-62
2022/12/29 06:49:03;;;;;;;25.60;5.13;;;;;;;;;;5021826;28;20026;-62
2022/12/29 06:51:29;;;;;;;27.35;5.25;;;;;;;;;;5019348;28;20734;-63
2022/12/29 06:53:55;;;;;;;30.23;5.47;;;;;;;;;;5021009;28;20390;-62
2022/12/29 06:56:22;;;;;;;22.60;5.13;;;;;;;;;;5021530;28;20079;-63
2022/12/29 06:58:48;;;;;;;32.03;5.97;;;;;;;;;;5025353;28;20436;-62
2022/12/29 07:01:14;;;;;;;35.58;6.72;;;;;;;;;;5040826;28;20026;-63
2022/12/29 07:03:42;;;;;;;31.10;5.55;;;;;;;;;;5043247;28;20458;-63
2022/12/29 07:06:08;;;;;;;32.75;5.82;;;;;;;;;;5028278;28;20021;-62
2022/12/29 07:08:34;;;;;;;30.38;6.43;;;;;;;;;;5047119;28;20029;-62
2022/12/29 07:11:00;;;;;;;27.08;5.00;;;;;;;;;;5047168;28;20056;-62
2022/12/29 07:13:26;;;;;;;43.15;5.90;;;;;;;;;;5045044;28;20029;-62
2022/12/29 07:15:52;;;;;;;31.33;5.57;;;;;;;;;;5039756;28;20538;-63
2022/12/29 07:18:19;;;;;;;33.60;5.80;;;;;;;;;;5026893;28;20030;-63
2022/12/29 07:20:45;;;;;;;26.85;5.22;;;;;;;;;;5026045;28;20113;-63
2022/12/29 07:23:11;;;;;;;32.35;5.93;;;;;;;;;;5027068;28;20155;-63
2022/12/29 07:25:37;;;;;;;37.60;5.55;;;;;;;;;;5024189;28;20401;-63
2022/12/29 07:28:03;;;;;;;36.20;7.20;;;;;;;;;;5021440;28;20101;-63
2022/12/29 07:30:30;;;;;;;30.55;9.13;;;;;;;;;;5020072;28;20021;-64
2022/12/29 07:32:56;;;;;;;32.90;5.60;;;;;;;;;;5031117;28;20120;-64
2022/12/29 07:35:22;;;;;;;36.33;5.95;;;;;;;;;;5031617;28;20034;-63
2022/12/29 07:37:48;;;;;;;30.73;6.13;;;;;;;;;;5031505;28;20025;-64
2022/12/29 07:40:14;;;;;;;34.22;6.22;;;;;;;;;;5036568;28;20079;-63
2022/12/29 07:42:40;;;;;;;31.98;8.50;;;;;;;;;;5031190;28;20029;-63
2022/12/29 07:45:09;;;;;;;38.25;7.07;;;;;;;;;;5021408;28;20014;-64
2022/12/29 07:47:53;;;;;;;30.65;5.18;;;;;;;;;;5023719;28;20044;-64
2022/12/29 07:50:20;;;;;;;39.95;7.28;;;;;;;;;;5035439;28;20714;-63
2022/12/29 07:52:47;;;;;;;26.77;5.28;;;;;;;;;;5031225;28;20100;-65
2022/12/29 07:55:14;;;;;;;34.00;5.95;;;;;;;;;;5030784;28;20498;-65
2022/12/29 07:57:40;;;;;;;31.00;5.72;;;;;;;;;;5031573;28;20030;-64
2022/12/29 08:00:06;;;;;;;35.03;4.97;;;;;;;;;;5022001;28;20025;-64
2022/12/29 08:02:38;;;;;;;27.88;5.60;;;;;;;;;;5020717;28;20032;-64
2022/12/29 08:05:04;;;;;;;33.13;5.00;;;;;;;;;;5023583;28;20087;-65
2022/12/29 08:07:30;;;;;;;33.67;6.70;;;;;;;;;;5025342;28;20013;-65
2022/12/29 08:09:57;;;;;;;32.20;5.45;;;;;;;;;;5022239;28;20025;-65
2022/12/29 08:12:23;;;;;;;24.73;5.28;;;;;;;;;;5023580;28;20670;-65
2022/12/29 08:14:49;;;;;;;30.20;5.05;;;;;;;;;;5026139;28;20032;-65
2022/12/29 08:17:15;;;;;;;35.47;6.40;;;;;;;;;;5021316;28;20075;-64
2022/12/29 08:19:42;;;;;;;29.95;5.88;;;;;;;;;;5024667;28;20091;-64
2022/12/29 08:22:08;;;;;;;31.80;5.40;;;;;;;;;;5025833;28;20060;-65
2022/12/29 08:24:35;;;;;;;31.70;4.45;;;;;;;;;;5028560;28;20029;-65
2022/12/29 08:27:01;;;;;;;21.83;4.13;;;;;;;;;;5015578;28;20106;-65
2022/12/29 08:29:28;;;;;;;30.98;5.60;;;;;;;;;;5014178;28;20440;-65
2022/12/29 08:31:54;;;;;;;31.30;4.90;;;;;;;;;;5024932;28;20075;-64
2022/12/29 08:34:20;;;;;;;30.33;5.78;;;;;;;;;;5028629;28;20103;-64
2022/12/29 08:36:46;;;;;;;26.58;5.03;;;;;;;;;;5028454;28;20033;-65
2022/12/29 08:39:12;;;;;;;27.77;4.72;;;;;;;;;;5029414;28;20025;-64
2022/12/29 08:41:38;;;;;;;21.17;4.30;;;;;;;;;;5026459;28;20022;-64
2022/12/29 08:44:04;;;;;;;22.13;4.25;;;;;;;;;;5027456;28;20498;-64
2022/12/29 08:46:30;;;;;;;23.10;4.88;;;;;;;;;;5029476;28;20014;-64
2022/12/29 08:48:56;;;;;;;33.15;5.15;;;;;;;;;;5028358;28;20400;-64
2022/12/29 08:51:23;;;;;;;29.08;5.03;;;;;;;;;;5027040;28;20084;-64
2022/12/29 08:53:50;;;;;;;36.60;4.55;;;;;;;;;;5034866;28;20033;-64
2022/12/29 08:56:17;;;;;;;22.23;4.22;;;;;;;;;;5031780;28;20022;-64
2022/12/29 08:58:49;;;;;;;26.58;4.90;;;;;;;;;;5025986;28;20116;-64
2022/12/29 09:01:17;;;;;;;33.47;5.38;;;;;;;;;;5018242;28;20061;-64
2022/12/29 09:03:43;;;;;;;27.95;4.35;;;;;;;;;;5033361;28;20029;-64
2022/12/29 09:06:09;;;;;;;23.00;4.57;;;;;;;;;;5031934;28;20073;-64
2022/12/29 09:08:36;;;;;;;27.55;4.82;;;;;;;;;;5036531;28;20025;-64
2022/12/29 09:11:09;;;;;;;17.90;4.15;;;;;;;;;;5030856;28;20037;-65
2022/12/29 09:13:35;;;;;;;21.52;4.43;;;;;;;;;;5032061;28;20413;-64
2022/12/29 09:16:01;;;;;;;25.63;3.22;;;;;;;;;;5033001;28;20029;-64
2022/12/29 09:18:27;;;;;;;31.40;4.47;;;;;;;;;;5033094;28;20087;-64
2022/12/29 09:21:00;;;;;;;19.83;4.32;;;;;;;;;;5033233;28;20029;-64
2022/12/29 09:23:27;;;;;;;15.73;3.63;;;;;;;;;;5035190;28;20029;-65
2022/12/29 09:25:53;;;;;;;22.58;3.75;;;;;;;;;;5027664;28;20045;-65
2022/12/29 09:28:20;;;;;;;32.47;4.68;;;;;;;;;;5028694;28;20052;-65
2022/12/29 09:30:46;;;;;;;20.58;4.72;;;;;;;;;;5032850;28;20033;-64
2022/12/29 09:33:12;;;;;;;25.55;4.13;;;;;;;;;;5033380;28;20526;-64
2022/12/29 09:35:42;;;;;;;23.38;3.92;;;;;;;;;;5024145;28;20037;-64
2022/12/29 09:38:08;;;;;;;32.13;5.03;;;;;;;;;;5027848;28;20021;-64
2022/12/29 09:40:35;;;;;;;36.22;4.53;;;;;;;;;;5027420;28;20037;-64
2022/12/29 09:43:20;;;;;;;36.22;4.30;;;;;;;;;;5029201;28;20141;-64
2022/12/29 09:45:50;;;;;;;29.67;4.65;;;;;;;;;;5031373;28;20026;-64
2022/12/29 09:48:37;;;;;;;29.75;6.07;;;;;;;;;;5032136;28;20033;-64
2022/12/29 09:51:08;;;;;;;31.55;4.78;;;;;;;;;;5029953;28;20033;-64
2022/12/29 09:53:39;;;;;;;27.23;4.22;;;;;;;;;;5027279;28;20098;-64
2022/12/29 09:56:08;;;;;;;17.45;3.55;;;;;;;;;;5031441;28;20038;-64
2022/12/29 09:58:40;;;;;;;31.10;5.43;;;;;;;;;;5027787;28;20500;-64
2022/12/29 10:01:07;;;;;;;25.00;4.63;;;;;;;;;;5029455;28;20033;-64
2022/12/29 10:03:50;;;;;;;23.08;4.35;;;;;;;;;;5030546;28;20563;-64
2022/12/29 10:06:20;;;;;;;22.73;4.35;;;;;;;;;;5030392;28;20021;-64
2022/12/29 10:08:55;;;;;;;39.60;4.88;;;;;;;;;;5029540;28;20060;-64
2022/12/29 10:11:56;;;;;;;24.55;5.45;;;;;;;;;;5030199;28;20543;-64
2022/12/29 10:14:25;;;;;;;22.80;4.65;;;;;;;;;;5052944;28;20575;-64
2022/12/29 10:16:51;;;;;;;31.73;4.40;;;;;;;;;;5052629;28;20045;-64
2022/12/29 10:19:36;;;;;;;26.20;4.88;;;;;;;;;;5046934;28;20072;-64
2022/12/29 10:22:21;;;;;;;22.55;4.60;;;;;;;;;;5048462;28;20059;-64
2022/12/29 10:24:49;;;;;;;20.35;3.85;;;;;;;;;;5048047;28;20032;-64
2022/12/29 10:27:16;;;;;;;29.13;5.88;;;;;;;;;;5047428;28;20044;-64
2022/12/29 10:30:08;;;;;;;28.35;4.25;;;;;;;;;;5047480;28;20664;-64
2022/12/29 10:32:39;;;;;;;27.48;5.35;;;;;;;;;;5041378;28;20060;-64
2022/12/29 10:35:14;;;;;;;28.25;4.78;;;;;;;;;;5048262;28;20059;-65
2022/12/29 10:37:46;;;;;;;24.13;5.93;;;;;;;;;;5048059;28;20543;-64
2022/12/29 10:40:27;;;;;;;24.42;4.18;;;;;;;;;;5047368;28;20127;-64
2022/12/29 10:42:55;;;;;;;21.33;3.50;;;;;;;;;;5047478;28;20040;-64
2022/12/29 10:45:22;;;;;;;24.65;4.82;;;;;;;;;;5043798;28;20108;-65
2022/12/29 10:47:52;;;;;;;31.77;5.05;;;;;;;;;;5024662;28;20034;-64
2022/12/29 10:50:18;;;;;;;26.02;3.80;;;;;;;;;;5026308;28;20025;-64
2022/12/29 10:52:44;;;;;;;22.30;4.28;;;;;;;;;;5024892;28;20384;-64
2022/12/29 10:55:15;;;;;;;24.13;4.20;;;;;;;;;;5027605;28;20022;-64
2022/12/29 10:57:44;;;;;;;21.35;4.07;;;;;;;;;;5023498;28;20025;-64
2022/12/29 11:00:16;;;;;;;23.60;4.55;;;;;;;;;;5028493;28;20034;-65
2022/12/29 11:02:49;;;;;;;14.30;3.10;;;;;;;;;;5023053;28;20092;-64
2022/12/29 11:05:33;;;;;;;11.20;2.78;;;;;;;;;;5026911;28;20049;-64
2022/12/29 11:08:01;;;;;;;15.52;2.50;;;;;;;;;;5026162;28;20021;-64
2022/12/29 11:10:39;;;;;;;14.10;2.78;;;;;;;;;;5028082;28;20021;-64
2022/12/29 11:13:13;;;;;;;16.02;3.47;;;;;;;;;;5027030;28;20069;-64
2022/12/29 11:15:44;;;;;;;16.25;3.25;;;;;;;;;;5020533;28;20045;-64
2022/12/29 11:18:20;;;;;;;18.33;3.53;;;;;;;;;;5029045;28;20091;-64
2022/12/29 11:20:46;;;;;;;17.73;3.70;;;;;;;;;;5030095;28;20554;-64
2022/12/29 11:23:26;;;;;;;20.00;4.07;;;;;;;;;;5030040;28;20014;-65
2022/12/29 11:26:13;;;;;;;23.98;6.53;;;;;;;;;;5030568;28;20124;-64
2022/12/29 11:28:40;;;;;;;19.42;2.97;;;;;;;;;;5028538;28;20025;-64
2022/12/29 11:31:07;;;;;;;9.48;3.42;;;;;;;;;;5030347;28;20088;-64
2022/12/29 11:33:34;;;;;;;11.75;2.83;;;;;;;;;;5029613;28;20037;-64
2022/12/29 11:36:06;;;;;;;15.82;4.38;;;;;;;;;;5029431;28;20025;-64
2022/12/29 11:38:37;;;;;;;21.05;4.07;;;;;;;;;;5028726;28;20029;-64
2022/12/29 11:41:04;;;;;;;17.63;3.00;;;;;;;;;;5028864;28;20087;-64
2022/12/29 11:43:35;;;;;;;16.13;2.60;;;;;;;;;;5029076;28;20018;-64
2022/12/29 11:46:05;;;;;;;33.22;5.38;;;;;;;;;;5028998;28;20026;-64
2022/12/29 11:48:40;;;;;;;24.75;3.83;;;;;;;;;;5028739;28;20040;-64
2022/12/29 11:51:07;;;;;;;19.35;3.17;;;;;;;;;;5026913;28;20078;-64
2022/12/29 11:53:47;;;;;;;18.63;3.40;;;;;;;;;;5029169;28;20018;-64
2022/12/29 11:56:18;;;;;;;14.10;3.08;;;;;;;;;;5028608;28;20434;-64
2022/12/29 11:58:44;;;;;;;20.75;4.65;;;;;;;;;;5027727;28;20033;-64
2022/12/29 12:01:19;;;;;;;24.20;3.65;;;;;;;;;;5028868;28;20105;-65
2022/12/29 12:03:53;;;;;;;23.38;3.83;;;;;;;;;;5027851;28;20034;-64
2022/12/29 12:06:24;;;;;;;18.00;3.65;;;;;;;;;;5030060;28;20088;-64
2022/12/29 12:08:58;;;;;;;13.93;3.03;;;;;;;;;;5027794;28;20026;-64
2022/12/29 12:11:36;;;;;;;16.80;4.07;;;;;;;;;;5021485;28;20083;-65
2022/12/29 12:14:10;;;;;;;17.25;3.60;;;;;;;;;;5024367;28;20076;-64
2022/12/29 12:16:58;;;;;;;18.98;3.60;;;;;;;;;;5023416;28;20406;-65
2022/12/29 12:19:41;;;;;;;21.58;5.25;;;;;;;;;;5025365;28;20113;-64
2022/12/29 12:22:16;;;;;;;15.00;3.67;;;;;;;;;;5022205;28;20087;-64
2022/12/29 12:24:44;;;;;;;18.83;3.80;;;;;;;;;;5021519;28;20029;-64
2022/12/29 12:27:22;;;;;;;14.65;2.33;;;;;;;;;;5025067;28;20064;-64
2022/12/29 12:30:04;;;;;;;19.73;2.50;;;;;;;;;;5019827;28;20068;-64
2022/12/29 12:32:45;;;;;;;14.70;2.53;;;;;;;;;;5023929;28;20060;-64
2022/12/29 12:35:24;;;;;;;22.05;3.28;;;;;;;;;;5021220;28;20041;-64
2022/12/29 12:37:58;;;;;;;8.27;2.55;;;;;;;;;;5026538;28;20037;-64
2022/12/29 12:40:25;;;;;;;14.32;2.58;;;;;;;;;;5030018;28;20464;-64
2022/12/29 12:43:00;;;;;;;12.75;2.33;;;;;;;;;;5030703;28;20033;-65
2022/12/29 12:45:45;;;;;;;13.88;2.65;;;;;;;;;;5024989;28;20036;-65
2022/12/29 12:48:36;;;;;;;14.85;2.65;;;;;;;;;;5021002;28;20501;-65
2022/12/29 12:51:11;;;;;;;18.23;2.83;;;;;;;;;;5016371;28;20057;-65
2022/12/29 12:53:54;;;;;;;20.02;2.53;;;;;;;;;;5023061;28;20432;-65
2022/12/29 12:56:44;;;;;;;12.32;2.85;;;;;;;;;;5021675;28;20022;-65
2022/12/29 12:59:10;;;;;;;22.52;2.78;;;;;;;;;;5024561;28;20475;-65
2022/12/29 13:01:39;;;;;;;14.27;2.78;;;;;;;;;;5026592;28;20029;-65
2022/12/29 13:04:17;;;;;;;10.38;2.38;;;;;;;;;;5032720;28;20464;-65
2022/12/29 13:06:47;;;;;;;13.40;3.65;;;;;;;;;;5031306;28;20037;-65
2022/12/29 13:09:16;;;;;;;16.83;2.70;;;;;;;;;;5021949;28;20457;-65
2022/12/29 13:12:04;;;;;;;9.52;2.83;;;;;;;;;;5026386;28;20129;-65
2022/12/29 13:14:39;;;;;;;18.80;2.92;;;;;;;;;;5029238;28;20060;-65
2022/12/29 13:17:12;;;;;;;18.10;2.80;;;;;;;;;;5024840;28;20029;-65
2022/12/29 13:19:38;;;;;;;15.48;3.15;;;;;;;;;;5032367;28;20022;-65
2022/12/29 13:22:22;;;;;;;13.35;3.45;;;;;;;;;;5028135;28;20064;-65
2022/12/29 13:24:58;;;;;;;22.55;3.15;;;;;;;;;;5024772;28;20025;-65
2022/12/29 13:27:30;;;;;;;19.58;2.67;;;;;;;;;;5030685;28;20029;-65
2022/12/29 13:29:56;;;;;;;19.42;2.58;;;;;;;;;;5024143;28;20045;-65
2022/12/29 13:32:28;;;;;;;16.75;2.47;;;;;;;;;;5023425;28;20041;-65
2022/12/29 13:34:54;;;;;;;19.15;2.58;;;;;;;;;;5026367;28;20069;-65
2022/12/29 13:37:22;;;;;;;15.77;1.95;;;;;;;;;;5017775;28;20105;-65
2022/12/29 13:40:03;;;;;;;10.27;2.17;;;;;;;;;;5020511;28;20026;-65
2022/12/29 13:42:30;;;;;;;14.30;2.00;;;;;;;;;;5021959;28;20025;-65
2022/12/29 13:45:05;;;;;;;8.30;1.83;;;;;;;;;;5021086;28;20478;-65
2022/12/29 13:47:35;;;;;;;11.43;2.22;;;;;;;;;;5017998;28;20046;-65
2022/12/29 13:50:03;;;;;;;10.07;2.47;;;;;;;;;;5024416;28;20029;-65
2022/12/29 13:52:29;;;;;;;13.23;2.25;;;;;;;;;;5024008;28;20037;-65
2022/12/29 13:55:02;;;;;;;12.20;2.38;;;;;;;;;;5028090;28;20025;-64
2022/12/29 13:57:40;;;;;;;13.70;2.40;;;;;;;;;;5025548;28;20079;-65
2022/12/29 14:00:12;;;;;;;17.63;2.20;;;;;;;;;;5026317;28;20021;-64
2022/12/29 14:02:54;;;;;;;14.50;3.40;;;;;;;;;;5031918;28;20017;-65
2022/12/29 14:05:23;;;;;;;12.85;2.15;;;;;;;;;;5027426;28;20024;-65
2022/12/29 14:08:03;;;;;;;11.85;2.85;;;;;;;;;;5024789;28;20417;-65
2022/12/29 14:10:35;;;;;;;17.50;2.40;;;;;;;;;;5025896;28;20041;-65
2022/12/29 14:13:17;;;;;;;16.52;2.63;;;;;;;;;;5026038;28;20029;-65
2022/12/29 14:15:44;;;;;;;;;;;;;;;;;;5020672;28;20446;-65
2022/12/29 14:18:16;;;;;;;13.45;2.03;;;;;;;;;;5021131;28;19959;-65
2022/12/29 14:20:48;;;;;;;6.18;1.80;;;;;;;;;;5020964;28;20057;-65
2022/12/29 14:23:14;;;;;;;11.45;2.17;;;;;;;;;;5018457;28;20080;-64
2022/12/29 14:25:59;;;;;;;8.48;1.70;;;;;;;;;;5020308;28;20022;-65
2022/12/29 14:28:35;;;;;;;8.18;1.75;;;;;;;;;;5030696;28;20390;-65
2022/12/29 14:31:03;;;;;;;8.05;1.75;;;;;;;;;;5026132;28;20043;-65
2022/12/29 14:33:31;;;;;;;6.18;2.05;;;;;;;;;;5021420;28;20115;-65
2022/12/29 14:35:58;;;;;;;13.07;1.70;;;;;;;;;;5023428;28;20030;-65
2022/12/29 14:38:28;;;;;;;13.18;2.42;;;;;;;;;;5027961;28;20022;-64
2022/12/29 14:41:14;;;;;;;11.27;1.77;;;;;;;;;;5029648;28;20052;-65
2022/12/29 14:43:41;;;;;;;8.07;1.70;;;;;;;;;;5019499;28;20029;-64
2022/12/29 14:46:08;;;;;;;6.15;1.95;;;;;;;;;;5030010;28;20014;-64
2022/12/29 14:48:37;;;;;;;7.68;1.83;;;;;;;;;;5031700;28;20567;-63
2022/12/29 14:51:16;;;;;;;8.93;2.03;;;;;;;;;;5029127;28;20030;-63
2022/12/29 14:53:44;;;;;;;10.48;2.05;;;;;;;;;;5031722;28;20025;-63
2022/12/29 14:56:11;;;;;;;11.65;2.30;;;;;;;;;;5032598;28;20083;-64
2022/12/29 14:58:57;;;;;;;10.88;2.42;;;;;;;;;;5031818;28;20034;-63
2022/12/29 15:01:23;;;;;;;10.43;2.00;;;;;;;;;;5031904;28;20500;-63
2022/12/29 15:03:51;;;;;;;13.52;2.33;;;;;;;;;;5033211;28;20394;-64
2022/12/29 15:06:21;;;;;;;17.00;2.00;;;;;;;;;;5032522;28;20056;-64
2022/12/29 15:09:10;;;;;;;8.07;1.85;;;;;;;;;;5032309;28;20100;-64
2022/12/29 15:11:37;;;;;;;8.70;2.80;;;;;;;;;;5031871;28;20030;-64
2022/12/29 15:14:03;;;;;;;14.10;2.40;;;;;;;;;;5031330;28;20036;-64
2022/12/29 15:16:35;;;;;;;13.10;2.13;;;;;;;;;;5012979;28;20026;-63
2022/12/29 15:19:01;;;;;;;12.88;3.58;;;;;;;;;;5011522;28;20410;-64
2022/12/29 15:21:37;;;;;;;15.90;3.08;;;;;;;;;;5012636;28;20034;-63
2022/12/29 15:24:03;;;;;;;10.02;2.53;;;;;;;;;;5012825;28;20026;-63
2022/12/29 15:26:40;;;;;;;12.10;3.13;;;;;;;;;;5012837;28;20061;-64